createdAt,value
2023-05-06T00:02:01.291Z,2.00
2023-05-06T00:04:28.369Z,1.90
2023-05-06T00:06:57.432Z,1.90
2023-05-06T00:09:24.292Z,2.20
2023-05-06T00:11:53.189Z,1.90
2023-05-06T00:14:20.107Z,2.00
2023-05-06T00:16:46.987Z,2.10
2023-05-06T00:19:13.947Z,1.70
2023-05-06T00:21:40.790Z,1.90
2023-05-06T00:24:07.645Z,1.90
2023-05-06T00:26:34.453Z,1.80
2023-05-06T00:29:02.438Z,2.10
2023-05-06T00:31:29.279Z,1.60
2023-05-06T00:33:56.785Z,1.80
2023-05-06T00:36:23.753Z,2.20
2023-05-06T00:38:51.803Z,2.30
2023-05-06T00:41:18.868Z,1.90
2023-05-06T00:43:46.816Z,2.00
2023-05-06T00:46:13.649Z,1.90
2023-05-06T00:48:40.528Z,2.10
2023-05-06T00:51:11.262Z,1.90
2023-05-06T00:53:38.077Z,2.20
2023-05-06T00:56:05.830Z,1.80
2023-05-06T00:58:33.615Z,2.00
2023-05-06T01:01:01.197Z,1.90
2023-05-06T01:03:28.185Z,1.90
2023-05-06T01:06:37.877Z,1.90
2023-05-06T01:09:24.802Z,1.50
2023-05-06T01:12:04.035Z,1.60
2023-05-06T01:14:55.091Z,1.70
2023-05-06T01:17:21.896Z,1.60
2023-05-06T01:19:49.122Z,1.80
2023-05-06T01:22:15.930Z,1.70
2023-05-06T01:24:43.641Z,1.80
2023-05-06T01:27:11.466Z,1.70
2023-05-06T01:29:41.384Z,1.80
2023-05-06T01:32:19.026Z,2.00
2023-05-06T01:34:56.759Z,1.90
2023-05-06T01:38:02.541Z,2.30
2023-05-06T01:40:29.836Z,1.60
2023-05-06T01:42:56.657Z,2.00
2023-05-06T01:45:25.794Z,1.80
2023-05-06T01:47:53.704Z,1.90
2023-05-06T01:50:21.459Z,2.00
2023-05-06T01:53:01.744Z,2.00
2023-05-06T01:55:28.939Z,1.70
2023-05-06T01:57:58.648Z,1.80
2023-05-06T02:00:26.445Z,1.70
2023-05-06T02:02:53.663Z,1.70
2023-05-06T02:05:20.950Z,1.90
2023-05-06T02:07:48.680Z,1.80
2023-05-06T02:10:15.600Z,1.70
2023-05-06T02:12:48.148Z,1.50
2023-05-06T02:15:15.640Z,1.80
2023-05-06T02:17:43.628Z,1.90
2023-05-06T02:20:10.577Z,1.80
2023-05-06T02:22:37.397Z,1.90
2023-05-06T02:25:04.495Z,1.80
2023-05-06T02:27:31.656Z,1.80
2023-05-06T02:29:58.735Z,1.90
2023-05-06T02:32:25.598Z,1.70
2023-05-06T02:34:54.116Z,1.40
2023-05-06T02:37:22.312Z,1.50
2023-05-06T02:39:49.130Z,1.60
2023-05-06T02:42:15.912Z,1.90
2023-05-06T02:44:42.869Z,1.80
2023-05-06T02:47:09.837Z,1.50
2023-05-06T02:49:40.315Z,1.60
2023-05-06T02:52:07.268Z,1.70
2023-05-06T02:54:34.312Z,1.70
2023-05-06T02:57:01.864Z,1.30
2023-05-06T02:59:28.905Z,1.30
2023-05-06T03:01:56.370Z,1.40
2023-05-06T03:04:23.198Z,1.70
2023-05-06T03:06:51.412Z,1.80
2023-05-06T03:09:20.047Z,1.60
2023-05-06T03:11:47.481Z,1.40
2023-05-06T03:14:17.603Z,1.50
2023-05-06T03:16:45.306Z,1.50
2023-05-06T03:19:12.620Z,1.30
2023-05-06T03:21:40.298Z,1.40
2023-05-06T03:24:07.263Z,1.40
2023-05-06T03:26:38.575Z,1.50
2023-05-06T03:29:08.834Z,1.40
2023-05-06T03:31:36.467Z,1.50
2023-05-06T03:34:03.335Z,1.60
2023-05-06T03:36:31.737Z,1.70
2023-05-06T03:39:01.751Z,1.50
2023-05-06T03:41:29.450Z,1.70
2023-05-06T03:43:56.984Z,1.50
2023-05-06T03:46:26.309Z,1.80
2023-05-06T03:48:55.062Z,1.60
2023-05-06T03:51:22.879Z,1.70
2023-05-06T03:53:50.957Z,1.80
2023-05-06T03:56:21.872Z,1.90
2023-05-06T03:58:49.897Z,1.70
2023-05-06T04:01:18.120Z,1.90
2023-05-06T04:03:45.508Z,1.90
2023-05-06T04:06:12.980Z,2.00
2023-05-06T04:08:41.304Z,1.90
2023-05-06T04:11:09.003Z,2.00
2023-05-06T04:13:37.350Z,1.80
2023-05-06T04:16:07.752Z,1.90
2023-05-06T04:18:39.253Z,1.90
2023-05-06T04:21:11.964Z,1.80
2023-05-06T04:23:41.021Z,1.80
2023-05-06T04:26:07.943Z,1.60
2023-05-06T04:28:36.298Z,1.80
2023-05-06T04:31:03.450Z,1.70
2023-05-06T04:33:37.080Z,1.90
2023-05-06T04:36:06.502Z,2.00
2023-05-06T04:38:35.193Z,2.10
2023-05-06T04:41:04.901Z,1.90
2023-05-06T04:43:32.544Z,2.20
2023-05-06T04:46:06.201Z,1.70
2023-05-06T04:48:33.906Z,2.00
2023-05-06T04:51:04.784Z,2.10
2023-05-06T04:53:32.574Z,2.00
2023-05-06T04:55:59.814Z,2.00
2023-05-06T04:58:26.648Z,2.20
2023-05-06T05:00:54.698Z,2.00
2023-05-06T05:03:21.694Z,2.30
2023-05-06T05:05:48.672Z,2.20
2023-05-06T05:08:17.387Z,1.80
2023-05-06T05:10:50.871Z,2.00
2023-05-06T05:13:21.178Z,1.80
2023-05-06T05:15:49.543Z,1.80
2023-05-06T05:18:16.515Z,2.10
2023-05-06T05:20:44.029Z,1.70
2023-05-06T05:23:12.222Z,2.00
2023-05-06T05:25:39.158Z,1.80
2023-05-06T05:28:06.156Z,1.80
2023-05-06T05:30:33.882Z,1.60
2023-05-06T05:33:01.221Z,1.70
2023-05-06T05:35:28.820Z,1.80
2023-05-06T05:37:57.006Z,1.90
2023-05-06T05:40:24.150Z,1.80
2023-05-06T05:42:53.623Z,1.80
2023-05-06T05:45:24.873Z,1.70
2023-05-06T05:47:56.668Z,1.70
2023-05-06T05:50:23.764Z,1.80
2023-05-06T05:52:55.458Z,1.70
2023-05-06T05:55:22.359Z,2.00
2023-05-06T05:57:50.412Z,1.80
2023-05-06T06:00:18.894Z,1.80
2023-05-06T06:02:46.405Z,1.70
2023-05-06T06:05:16.281Z,1.50
2023-05-06T06:07:43.333Z,1.90
2023-05-06T06:10:12.963Z,1.60
2023-05-06T06:12:40.535Z,1.70
2023-05-06T06:15:11.008Z,1.60
2023-05-06T06:20:07.165Z,1.60
2023-05-06T06:22:34.848Z,1.50
2023-05-06T06:25:01.785Z,1.60
2023-05-06T06:27:29.090Z,1.50
2023-05-06T06:29:57.145Z,1.50
2023-05-06T06:32:24.370Z,1.40
2023-05-06T06:34:53.231Z,1.40
2023-05-06T06:37:20.094Z,1.50
2023-05-06T06:39:46.896Z,1.40
2023-05-06T06:42:14.264Z,1.50
2023-05-06T06:44:48.582Z,1.40
2023-05-06T06:47:15.461Z,1.30
2023-05-06T06:49:42.277Z,1.30
2023-05-06T06:52:09.010Z,1.20
2023-05-06T06:54:38.296Z,1.50
2023-05-06T06:57:06.641Z,1.40
2023-05-06T06:59:33.757Z,1.40
2023-05-06T07:02:01.712Z,1.50
2023-05-06T07:04:28.752Z,1.10
2023-05-06T07:06:56.091Z,1.40
2023-05-06T07:09:24.526Z,1.40
2023-05-06T07:11:51.368Z,1.30
2023-05-06T07:14:18.385Z,1.20
2023-05-06T07:16:46.720Z,1.30
2023-05-06T07:19:14.412Z,1.50
2023-05-06T07:21:41.864Z,1.40
2023-05-06T07:24:10.740Z,1.40
2023-05-06T07:26:41.790Z,1.50
2023-05-06T07:29:11.815Z,1.40
2023-05-06T07:31:39.209Z,1.20
2023-05-06T07:34:07.550Z,1.50
2023-05-06T07:36:40.756Z,1.50
2023-05-06T07:41:35.633Z,1.50
2023-05-06T07:44:06.346Z,1.50
2023-05-06T07:46:33.219Z,2.00
2023-05-06T07:49:00.418Z,1.60
2023-05-06T07:51:27.679Z,1.40
2023-05-06T07:53:54.498Z,1.40
2023-05-06T07:56:21.603Z,1.60
2023-05-06T07:58:48.933Z,1.90
2023-05-06T08:01:16.468Z,1.80
2023-05-06T08:03:44.696Z,1.40
2023-05-06T08:06:13.313Z,1.80
2023-05-06T08:08:40.900Z,1.50
2023-05-06T08:11:07.884Z,1.60
2023-05-06T08:13:35.549Z,1.50
2023-05-06T08:16:02.880Z,1.70
2023-05-06T08:18:30.334Z,1.40
2023-05-06T08:20:57.988Z,1.30
2023-05-06T08:23:25.590Z,1.70
2023-05-06T08:25:52.429Z,1.50
2023-05-06T08:28:19.306Z,1.20
2023-05-06T08:30:48.120Z,1.50
2023-05-06T08:33:15.071Z,1.50
2023-05-06T08:35:43.255Z,1.40
2023-05-06T08:38:10.262Z,1.60
2023-05-06T08:40:43.141Z,1.80
2023-05-06T08:43:14.207Z,1.40
2023-05-06T08:45:41.700Z,1.50
2023-05-06T08:48:10.317Z,2.30
2023-05-06T08:50:45.724Z,1.70
2023-05-06T08:53:16.891Z,1.60
2023-05-06T08:55:44.149Z,1.50
2023-05-06T08:58:13.540Z,1.60
2023-05-06T09:00:42.757Z,1.70
2023-05-06T09:03:10.101Z,1.50
2023-05-06T09:05:37.128Z,1.70
2023-05-06T09:08:05.554Z,1.50
2023-05-06T09:10:42.148Z,1.60
2023-05-06T09:13:12.600Z,1.50
2023-05-06T09:15:41.753Z,1.20
2023-05-06T09:18:08.937Z,1.30
2023-05-06T09:20:36.024Z,1.30
2023-05-06T09:23:02.873Z,1.40
2023-05-06T09:25:30.580Z,1.50
2023-05-06T09:28:11.438Z,1.40
2023-05-06T09:30:43.931Z,1.50
2023-05-06T09:33:11.357Z,1.40
2023-05-06T09:35:42.249Z,1.30
2023-05-06T09:38:09.555Z,1.70
2023-05-06T09:40:36.516Z,1.40
2023-05-06T09:43:09.577Z,1.50
2023-05-06T09:45:37.960Z,1.30
2023-05-06T09:48:06.038Z,1.40
2023-05-06T09:50:33.624Z,1.60
2023-05-06T09:53:03.139Z,1.40
2023-05-06T09:55:31.245Z,1.50
2023-05-06T09:58:00.976Z,1.80
2023-05-06T10:00:29.456Z,1.70
2023-05-06T10:02:56.626Z,1.50
2023-05-06T10:05:25.265Z,1.40
2023-05-06T10:07:53.069Z,1.50
2023-05-06T10:10:20.826Z,1.70
2023-05-06T10:12:48.200Z,1.40
2023-05-06T10:15:15.679Z,2.10
2023-05-06T10:17:46.974Z,1.40
2023-05-06T10:20:14.413Z,1.70
2023-05-06T10:23:09.124Z,1.60
2023-05-06T10:25:44.374Z,1.60
2023-05-06T10:28:19.822Z,1.60
2023-05-06T10:30:56.694Z,1.60
2023-05-06T10:33:23.505Z,1.70
2023-05-06T10:36:07.185Z,1.80
2023-05-06T10:38:42.212Z,1.70
2023-05-06T10:41:09.581Z,1.60
2023-05-06T10:43:43.229Z,1.80
2023-05-06T10:46:15.866Z,1.50
2023-05-06T10:49:10.767Z,1.40
2023-05-06T10:51:42.048Z,1.40
2023-05-06T10:54:18.168Z,1.40
2023-05-06T10:56:48.276Z,1.40
2023-05-06T10:59:20.050Z,1.40
2023-05-06T11:01:55.733Z,1.50
2023-05-06T11:04:22.637Z,1.70
2023-05-06T11:06:52.614Z,1.50
2023-05-06T11:09:25.713Z,1.60
2023-05-06T11:12:05.597Z,1.90
2023-05-06T11:14:38.085Z,1.80
2023-05-06T11:17:11.070Z,1.80
2023-05-06T11:19:39.604Z,1.50
2023-05-06T11:22:07.381Z,1.80
2023-05-06T11:24:42.133Z,1.80
2023-05-06T11:27:09.957Z,1.60
2023-05-06T11:29:37.024Z,2.00
2023-05-06T11:32:05.138Z,1.60
2023-05-06T11:34:32.211Z,1.60
2023-05-06T11:37:01.727Z,1.90
2023-05-06T11:39:36.672Z,1.60
2023-05-06T11:42:07.526Z,1.70
2023-05-06T11:44:36.690Z,1.60
2023-05-06T11:47:05.514Z,1.80
2023-05-06T11:49:47.043Z,1.70
2023-05-06T11:52:14.329Z,2.20
2023-05-06T11:54:41.940Z,1.80
2023-05-06T11:57:09.123Z,1.80
2023-05-06T11:59:37.373Z,2.00
2023-05-06T12:02:09.578Z,2.00
2023-05-06T12:04:47.292Z,1.90
2023-05-06T12:07:15.003Z,1.70
2023-05-06T12:09:48.740Z,1.70
2023-05-06T12:12:22.462Z,1.50
2023-05-06T12:14:50.165Z,2.00
2023-05-06T12:17:17.072Z,1.60
2023-05-06T12:19:46.028Z,1.90
2023-05-06T12:22:24.492Z,1.80
2023-05-06T12:25:13.096Z,1.60
2023-05-06T12:28:01.357Z,1.80
2023-05-06T12:30:31.935Z,1.30
2023-05-06T12:33:00.303Z,1.50
2023-05-06T12:35:28.463Z,1.60
2023-05-06T12:37:57.264Z,1.70
2023-05-06T12:40:24.404Z,1.60
2023-05-06T12:42:55.507Z,1.40
2023-05-06T12:45:22.642Z,1.50
2023-05-06T12:47:57.198Z,1.70
2023-05-06T12:50:40.386Z,1.90
2023-05-06T12:53:09.068Z,1.60
2023-05-06T12:55:37.460Z,1.60
2023-05-06T12:58:15.329Z,1.50
2023-05-06T13:00:42.309Z,1.60
2023-05-06T13:03:10.963Z,1.70
2023-05-06T13:05:38.937Z,1.60
2023-05-06T13:08:06.209Z,1.60
2023-05-06T13:10:33.340Z,1.40
2023-05-06T13:13:00.192Z,1.70
2023-05-06T13:15:27.267Z,1.60
2023-05-06T13:17:54.105Z,1.30
2023-05-06T13:20:21.247Z,1.50
2023-05-06T13:22:54.730Z,2.20
2023-05-06T13:25:22.724Z,1.70
2023-05-06T13:27:50.637Z,1.50
2023-05-06T13:30:26.031Z,1.30
2023-05-06T13:32:53.115Z,1.70
2023-05-06T13:35:20.019Z,1.50
2023-05-06T13:37:47.037Z,1.70
2023-05-06T13:40:14.285Z,1.60
2023-05-06T13:42:41.518Z,1.50
2023-05-06T13:45:08.956Z,1.40
2023-05-06T13:47:37.025Z,1.50
2023-05-06T13:50:06.036Z,1.40
2023-05-06T13:52:33.181Z,1.70
2023-05-06T13:55:00.170Z,1.30
2023-05-06T13:57:28.372Z,1.70
2023-05-06T13:59:55.344Z,1.60
2023-05-06T14:02:22.245Z,1.70
2023-05-06T14:04:51.396Z,1.60
2023-05-06T14:07:18.596Z,1.60
2023-05-06T14:09:45.494Z,1.30
2023-05-06T14:12:13.106Z,1.90
2023-05-06T14:14:40.456Z,1.60
2023-05-06T14:17:07.947Z,1.80
2023-05-06T14:19:35.264Z,1.50
2023-05-06T14:22:02.238Z,1.60
2023-05-06T14:24:29.512Z,1.50
2023-05-06T14:26:56.404Z,1.50
2023-05-06T14:29:23.191Z,1.60
2023-05-06T14:31:50.126Z,1.70
2023-05-06T14:34:16.987Z,1.60
2023-05-06T14:36:44.015Z,1.50
2023-05-06T14:39:10.879Z,1.60
2023-05-06T14:41:37.739Z,1.60
2023-05-06T14:44:04.920Z,1.60
2023-05-06T14:46:32.752Z,1.70
2023-05-06T14:48:59.571Z,1.70
2023-05-06T14:51:26.546Z,1.60
2023-05-06T14:53:53.455Z,1.80
2023-05-06T14:56:20.798Z,1.50
2023-05-06T14:58:47.899Z,1.80
2023-05-06T15:01:16.236Z,1.80
2023-05-06T15:03:44.762Z,1.60
2023-05-06T15:06:12.862Z,1.70
2023-05-06T15:08:39.667Z,1.70
2023-05-06T15:11:06.537Z,1.60
2023-05-06T15:13:35.348Z,1.70
2023-05-06T15:16:02.189Z,1.60
2023-05-06T15:18:30.731Z,1.80
2023-05-06T15:21:01.224Z,2.50
2023-05-06T15:23:31.086Z,6.30
2023-05-06T15:25:58.104Z,13.90
2023-05-06T15:28:25.164Z,4.40
2023-05-06T15:30:52.361Z,3.40
2023-05-06T15:33:19.301Z,2.00
2023-05-06T15:35:46.209Z,1.80
2023-05-06T15:38:13.583Z,7.80
2023-05-06T15:40:48.635Z,2.80
2023-05-06T15:43:22.940Z,2.10
2023-05-06T15:45:50.959Z,2.10
2023-05-06T15:48:17.878Z,1.80
2023-05-06T15:50:45.565Z,1.80
2023-05-06T15:53:13.517Z,1.60
2023-05-06T15:55:46.763Z,1.70
2023-05-06T15:58:22.650Z,1.50
2023-05-06T16:00:49.710Z,1.70
2023-05-06T16:03:16.980Z,2.10
2023-05-06T16:05:43.892Z,1.70
2023-05-06T16:08:10.841Z,1.50
2023-05-06T16:10:38.145Z,1.80
2023-05-06T16:13:08.135Z,1.50
2023-05-06T16:15:35.829Z,1.80
2023-05-06T16:18:02.770Z,2.30
2023-05-06T16:20:31.626Z,2.00
2023-05-06T16:22:59.514Z,1.90
2023-05-06T16:25:27.159Z,1.70
2023-05-06T16:27:55.032Z,2.40
2023-05-06T16:30:23.735Z,2.00
2023-05-06T16:32:51.597Z,1.90
2023-05-06T16:35:18.674Z,2.40
2023-05-06T16:37:46.573Z,1.90
2023-05-06T16:40:16.649Z,4.90
2023-05-06T16:42:44.303Z,5.20
2023-05-06T16:45:11.365Z,4.20
2023-05-06T16:47:40.731Z,3.50
2023-05-06T16:50:11.874Z,3.00
2023-05-06T16:52:41.031Z,2.80
2023-05-06T16:55:08.562Z,2.60
2023-05-06T16:57:36.130Z,2.70
2023-05-06T17:00:07.482Z,3.40
2023-05-06T17:02:35.947Z,3.30
2023-05-06T17:05:03.435Z,4.40
2023-05-06T17:07:33.408Z,4.10
2023-05-06T17:10:05.812Z,4.80
2023-05-06T17:12:34.468Z,4.50
2023-05-06T17:15:03.591Z,3.70
2023-05-06T17:17:32.954Z,3.90
2023-05-06T17:20:01.548Z,4.00
2023-05-06T17:22:28.831Z,4.40
2023-05-06T17:24:56.117Z,4.20
2023-05-06T17:27:25.111Z,4.60
2023-05-06T17:29:51.925Z,3.80
2023-05-06T17:32:19.165Z,3.90
2023-05-06T17:34:46.832Z,2.80
2023-05-06T17:37:13.754Z,3.00
2023-05-06T17:39:40.941Z,3.10
2023-05-06T17:42:08.719Z,3.10
2023-05-06T17:44:37.723Z,3.10
2023-05-06T17:47:05.453Z,3.10
2023-05-06T17:49:33.857Z,4.10
2023-05-06T17:52:01.742Z,4.80
2023-05-06T17:54:32.066Z,4.00
2023-05-06T17:57:00.541Z,4.60
2023-05-06T17:59:28.990Z,4.90
2023-05-06T18:01:56.670Z,4.70
2023-05-06T18:04:23.960Z,4.60
2023-05-06T18:06:51.976Z,5.20
2023-05-06T18:09:19.351Z,6.10
2023-05-06T18:11:47.182Z,6.60
2023-05-06T18:14:14.966Z,7.10
2023-05-06T18:16:42.539Z,6.30
2023-05-06T18:19:10.776Z,5.80
2023-05-06T18:21:42.565Z,5.40
2023-05-06T18:24:15.960Z,4.20
2023-05-06T18:26:46.010Z,3.90
2023-05-06T18:29:15.791Z,4.00
2023-05-06T18:31:43.265Z,3.90
2023-05-06T18:34:10.501Z,3.80
2023-05-06T18:36:37.863Z,3.40
2023-05-06T18:39:05.090Z,3.90
2023-05-06T18:41:33.832Z,4.30
2023-05-06T18:44:03.675Z,4.70
2023-05-06T18:46:30.840Z,3.70
2023-05-06T18:48:58.546Z,3.80
2023-05-06T18:51:25.831Z,3.40
2023-05-06T18:53:53.018Z,3.00
2023-05-06T18:56:20.877Z,3.50
2023-05-06T18:58:47.746Z,3.60
2023-05-06T19:01:18.391Z,3.60
2023-05-06T19:03:46.290Z,4.20
2023-05-06T19:06:13.465Z,4.60
2023-05-06T19:08:41.075Z,6.90
2023-05-06T19:11:14.655Z,5.00
2023-05-06T19:13:43.194Z,4.60
2023-05-06T19:16:10.700Z,5.20
2023-05-06T19:18:37.632Z,4.60
2023-05-06T19:21:04.495Z,4.40
2023-05-06T19:23:32.306Z,4.80
2023-05-06T19:25:59.123Z,4.40
2023-05-06T19:28:26.609Z,5.00
2023-05-06T19:30:54.554Z,4.70
2023-05-06T19:33:21.500Z,4.50
2023-05-06T19:35:48.373Z,3.70
2023-05-06T19:38:15.286Z,3.50
2023-05-06T19:40:42.031Z,3.70
2023-05-06T19:43:08.853Z,3.40
2023-05-06T19:45:36.026Z,3.20
2023-05-06T19:48:04.955Z,3.60
2023-05-06T19:50:32.957Z,3.30
2023-05-06T19:52:59.798Z,3.80
2023-05-06T19:55:26.660Z,3.10
2023-05-06T19:57:56.627Z,3.30
2023-05-06T20:00:24.973Z,3.10
2023-05-06T20:02:52.399Z,2.70
2023-05-06T20:05:24.654Z,2.50
2023-05-06T20:07:51.772Z,3.10
2023-05-06T20:10:19.452Z,2.70
2023-05-06T20:12:46.292Z,2.80
2023-05-06T20:15:13.476Z,3.70
2023-05-06T20:17:43.379Z,3.30
2023-05-06T20:20:10.898Z,3.10
2023-05-06T20:22:40.695Z,3.20
2023-05-06T20:25:13.877Z,3.20
2023-05-06T20:27:42.940Z,3.30
2023-05-06T20:30:10.535Z,2.50
2023-05-06T20:32:39.681Z,3.10
2023-05-06T20:35:06.727Z,3.10
2023-05-06T20:37:34.850Z,2.70
2023-05-06T20:40:04.064Z,3.20
2023-05-06T20:42:31.309Z,3.00
2023-05-06T20:44:58.280Z,3.20
2023-05-06T20:47:25.773Z,3.30
2023-05-06T20:49:53.543Z,2.90
2023-05-06T20:52:21.325Z,2.80
2023-05-06T20:54:48.377Z,3.60
2023-05-06T20:57:17.799Z,2.80
2023-05-06T20:59:45.396Z,2.60
2023-05-06T21:02:12.138Z,2.50
2023-05-06T21:04:39.326Z,2.70
2023-05-06T21:07:06.160Z,2.40
2023-05-06T21:09:32.989Z,2.30
2023-05-06T21:11:59.817Z,2.70
2023-05-06T21:14:26.943Z,3.10
2023-05-06T21:16:53.854Z,2.20
2023-05-06T21:19:20.657Z,2.50
2023-05-06T21:21:47.855Z,2.50
2023-05-06T21:24:15.030Z,2.70
2023-05-06T21:26:42.509Z,2.70
2023-05-06T21:29:09.969Z,2.10
2023-05-06T21:31:37.576Z,2.50
2023-05-06T21:34:08.460Z,2.50
2023-05-06T21:36:35.980Z,2.50
2023-05-06T21:39:07.790Z,2.40
2023-05-06T21:41:35.631Z,2.30
2023-05-06T21:44:03.405Z,2.40
2023-05-06T21:46:30.778Z,2.60
2023-05-06T21:48:58.055Z,2.10
2023-05-06T21:51:28.137Z,2.50
2023-05-06T21:53:55.045Z,2.50
2023-05-06T21:56:21.909Z,2.20
2023-05-06T21:58:48.853Z,2.50
2023-05-06T22:01:15.678Z,2.80
2023-05-06T22:03:43.686Z,3.00
2023-05-06T22:06:11.239Z,2.50
2023-05-06T22:08:38.868Z,1.80
2023-05-06T22:11:06.147Z,2.30
2023-05-06T22:13:33.388Z,2.40
2023-05-06T22:16:01.390Z,2.50
2023-05-06T22:18:29.469Z,2.40
2023-05-06T22:20:57.344Z,2.30
2023-05-06T22:23:25.485Z,2.20
2023-05-06T22:25:52.334Z,2.20
2023-05-06T22:28:19.295Z,2.10
2023-05-06T22:30:46.146Z,2.30
2023-05-06T22:33:13.626Z,2.30
2023-05-06T22:35:40.490Z,2.30
2023-05-06T22:38:07.696Z,2.70
2023-05-06T22:40:34.792Z,2.40
2023-05-06T22:43:01.663Z,2.90
2023-05-06T22:45:28.698Z,2.70
2023-05-06T22:47:56.424Z,2.20
2023-05-06T22:50:24.522Z,2.80
2023-05-06T22:52:51.395Z,2.40
2023-05-06T22:55:18.266Z,2.40
2023-05-06T22:57:46.593Z,2.50
2023-05-06T23:00:13.408Z,2.90
2023-05-06T23:02:40.598Z,2.40
2023-05-06T23:05:07.820Z,2.70
2023-05-06T23:07:34.782Z,2.50
2023-05-06T23:10:01.987Z,2.30
2023-05-06T23:12:55.437Z,2.50
2023-05-06T23:24:12.487Z,2.30
2023-05-06T23:26:39.248Z,2.60
2023-05-06T23:29:06.048Z,2.90
2023-05-06T23:31:33.057Z,2.30
2023-05-06T23:33:59.950Z,2.40
2023-05-06T23:36:26.778Z,2.20
2023-05-06T23:38:53.564Z,2.60
2023-05-06T23:41:23.004Z,3.50
2023-05-06T23:43:49.788Z,2.90
2023-05-06T23:46:16.728Z,2.60
2023-05-06T23:48:43.725Z,2.70
2023-05-06T23:51:10.817Z,2.70
2023-05-06T23:53:37.587Z,2.40
2023-05-06T23:56:04.875Z,2.60
2023-05-06T23:58:32.006Z,2.80
